createdAt,value
2022-10-19T00:02:22.910Z,99271.00
2022-10-19T00:04:49.523Z,99265.28
2022-10-19T00:07:16.077Z,99266.66
2022-10-19T00:09:49.346Z,99277.53
2022-10-19T00:12:15.922Z,99278.91
2022-10-19T00:14:42.508Z,99279.34
2022-10-19T00:17:09.048Z,99277.03
2022-10-19T00:19:35.568Z,99284.47
2022-10-19T00:22:02.601Z,99277.19
2022-10-19T00:24:29.435Z,99278.34
2022-10-19T00:26:56.088Z,99276.97
2022-10-19T00:29:22.717Z,99277.97
2022-10-19T00:31:50.533Z,99272.06
2022-10-19T00:34:17.473Z,99274.81
2022-10-19T00:36:43.969Z,99277.41
2022-10-19T00:39:15.592Z,99277.75
2022-10-19T00:41:43.602Z,99271.28
2022-10-19T00:44:10.040Z,99276.00
2022-10-19T00:46:41.741Z,99271.72
2022-10-19T00:49:15.757Z,99272.31
2022-10-19T00:51:45.655Z,99270.38
2022-10-19T00:54:12.736Z,99268.31
2022-10-19T00:56:41.739Z,99263.31
2022-10-19T00:59:09.050Z,99266.94
2022-10-19T01:01:35.785Z,99265.81
2022-10-19T01:04:03.121Z,99269.06
2022-10-19T01:06:30.128Z,99275.44
2022-10-19T01:08:56.829Z,99276.00
2022-10-19T01:11:32.771Z,99276.16
2022-10-19T01:14:17.772Z,99271.22
2022-10-19T01:16:53.215Z,99274.97
2022-10-19T01:20:08.027Z,99271.28
2022-10-19T01:23:06.316Z,99265.75
2022-10-19T01:25:55.919Z,99267.03
2022-10-19T01:28:47.713Z,99264.06
2022-10-19T01:31:20.512Z,99259.06
2022-10-19T01:33:53.215Z,99253.41
2022-10-19T01:36:38.153Z,99253.81
2022-10-19T01:39:37.463Z,99252.22
2022-10-19T01:42:44.649Z,99244.84
2022-10-19T01:45:21.209Z,99243.81
2022-10-19T01:47:59.526Z,99244.22
2022-10-19T01:50:38.485Z,99235.66
2022-10-19T01:53:07.686Z,99239.94
2022-10-19T01:55:34.967Z,99238.88
2022-10-19T01:58:09.845Z,99234.19
2022-10-19T02:00:39.110Z,99232.25
2022-10-19T02:03:05.911Z,99231.38
2022-10-19T02:05:33.847Z,99230.19
2022-10-19T02:08:05.010Z,99219.28
2022-10-19T02:10:32.615Z,99215.88
2022-10-19T02:12:59.496Z,99214.09
2022-10-19T02:15:26.839Z,99227.53
2022-10-19T02:17:57.280Z,99220.75
2022-10-19T02:20:23.939Z,99222.84
2022-10-19T02:22:50.894Z,99219.56
2022-10-19T02:25:17.585Z,99215.59
2022-10-19T02:27:44.611Z,99217.06
2022-10-19T02:30:13.196Z,99213.97
2022-10-19T02:32:39.965Z,99207.91
2022-10-19T02:35:06.765Z,99204.78
2022-10-19T02:37:33.533Z,99196.09
2022-10-19T02:40:00.633Z,99205.00
2022-10-19T02:42:36.096Z,99202.72
2022-10-19T02:45:17.651Z,99192.97
2022-10-19T02:47:48.507Z,99195.03
2022-10-19T02:50:15.467Z,99194.28
2022-10-19T02:52:42.100Z,99189.72
2022-10-19T02:55:09.327Z,99187.34
2022-10-19T02:57:36.521Z,99187.19
2022-10-19T03:00:05.927Z,99197.13
2022-10-19T03:02:32.431Z,99191.72
2022-10-19T03:04:58.962Z,99183.88
2022-10-19T03:07:25.625Z,99189.59
2022-10-19T03:09:52.351Z,99189.69
2022-10-19T03:12:18.998Z,99175.25
2022-10-19T03:14:45.604Z,99182.88
2022-10-19T03:17:12.385Z,99179.50
2022-10-19T03:19:39.101Z,99177.31
2022-10-19T03:22:06.350Z,99180.97
2022-10-19T03:24:32.933Z,99180.25
2022-10-19T03:26:59.497Z,99175.97
2022-10-19T03:29:26.045Z,99179.81
2022-10-19T03:31:52.657Z,99174.19
2022-10-19T03:34:19.222Z,99173.38
2022-10-19T03:36:45.862Z,99174.00
2022-10-19T03:39:13.981Z,99167.56
2022-10-19T03:41:40.923Z,99168.47
2022-10-19T03:44:09.332Z,99169.13
2022-10-19T03:46:36.444Z,99175.06
2022-10-19T03:49:04.225Z,99170.84
2022-10-19T03:51:31.087Z,99167.44
2022-10-19T03:53:59.891Z,99164.88
2022-10-19T03:56:28.238Z,99169.38
2022-10-19T03:58:55.899Z,99163.16
2022-10-19T04:01:31.323Z,99166.03
2022-10-19T04:04:00.537Z,99166.59
2022-10-19T04:06:33.247Z,99165.16
2022-10-19T04:09:00.144Z,99167.97
2022-10-19T04:11:28.885Z,99160.16
2022-10-19T04:13:56.392Z,99161.28
2022-10-19T04:16:24.439Z,99165.56
2022-10-19T04:18:51.280Z,99164.06
2022-10-19T04:21:25.348Z,99165.09
2022-10-19T04:23:52.387Z,99167.19
2022-10-19T04:26:19.866Z,99158.78
2022-10-19T04:28:46.416Z,99162.81
2022-10-19T04:31:13.099Z,99164.81
2022-10-19T04:33:40.529Z,99165.28
2022-10-19T04:36:09.335Z,99170.63
2022-10-19T04:38:36.694Z,99169.41
2022-10-19T04:41:04.322Z,99175.34
2022-10-19T04:43:31.247Z,99171.94
2022-10-19T04:46:02.404Z,99176.66
2022-10-19T04:48:28.940Z,99179.88
2022-10-19T04:50:55.904Z,99177.38
2022-10-19T04:55:49.112Z,99174.34
2022-10-19T04:58:15.689Z,99169.06
2022-10-19T05:00:42.328Z,99171.56
2022-10-19T05:03:09.203Z,99169.38
2022-10-19T05:05:35.807Z,99173.50
2022-10-19T05:08:02.542Z,99166.25
2022-10-19T05:10:29.309Z,99174.44
2022-10-19T05:12:55.916Z,99167.03
2022-10-19T05:15:22.943Z,99167.81
2022-10-19T05:17:51.324Z,99171.22
2022-10-19T05:20:17.859Z,99170.06
2022-10-19T05:22:44.355Z,99170.63
2022-10-19T05:25:10.915Z,99167.59
2022-10-19T05:27:37.511Z,99166.94
2022-10-19T05:30:06.377Z,99165.97
2022-10-19T05:32:32.955Z,99165.25
2022-10-19T05:34:59.561Z,99170.47
2022-10-19T05:37:26.192Z,99161.75
2022-10-19T05:39:54.377Z,99167.81
2022-10-19T05:42:20.983Z,99173.44
2022-10-19T05:44:47.639Z,99168.16
2022-10-19T05:47:14.419Z,99172.59
2022-10-19T05:49:41.071Z,99173.13
2022-10-19T05:52:07.593Z,99165.06
2022-10-19T05:54:35.927Z,99162.91
2022-10-19T05:57:02.639Z,99163.72
2022-10-19T05:59:29.232Z,99170.13
2022-10-19T06:01:56.107Z,99163.56
2022-10-19T06:04:22.698Z,99170.88
2022-10-19T06:06:49.358Z,99174.25
2022-10-19T06:09:16.076Z,99178.88
2022-10-19T06:11:43.380Z,99189.66
2022-10-19T06:14:14.725Z,99190.00
2022-10-19T06:16:41.553Z,99189.91
2022-10-19T06:19:08.162Z,99188.94
2022-10-19T06:21:34.683Z,99187.69
2022-10-19T06:24:04.956Z,99185.13
2022-10-19T06:26:33.749Z,99180.53
2022-10-19T06:29:01.399Z,99180.28
2022-10-19T06:31:33.043Z,99178.53
2022-10-19T06:33:59.799Z,99177.72
2022-10-19T06:36:28.797Z,99185.47
2022-10-19T06:38:56.540Z,99183.66
2022-10-19T06:41:23.205Z,99189.22
2022-10-19T06:43:51.553Z,99177.16
2022-10-19T06:46:21.983Z,99184.69
2022-10-19T06:48:59.924Z,99178.25
2022-10-19T06:51:29.003Z,99180.25
2022-10-19T06:53:57.193Z,99175.22
2022-10-19T06:56:24.768Z,99186.72
2022-10-19T06:58:51.970Z,99185.66
2022-10-19T07:01:18.677Z,99179.81
2022-10-19T07:03:45.436Z,99177.63
2022-10-19T07:06:12.954Z,99178.97
2022-10-19T07:08:40.529Z,99187.66
2022-10-19T07:11:09.858Z,99179.66
2022-10-19T07:13:36.825Z,99180.88
2022-10-19T07:16:08.895Z,99185.06
2022-10-19T07:18:36.835Z,99191.06
2022-10-19T07:21:06.295Z,99189.06
2022-10-19T07:23:34.391Z,99188.75
2022-10-19T07:26:13.737Z,99191.94
2022-10-19T07:28:42.009Z,99192.25
2022-10-19T07:31:11.054Z,99193.13
2022-10-19T07:33:37.711Z,99200.38
2022-10-19T07:36:06.826Z,99203.34
2022-10-19T07:38:33.992Z,99202.47
2022-10-19T07:41:01.827Z,99195.97
2022-10-19T07:43:28.344Z,99193.31
2022-10-19T07:46:04.720Z,99193.59
2022-10-19T07:48:31.747Z,99195.38
2022-10-19T07:51:04.220Z,99205.53
2022-10-19T07:53:30.865Z,99197.97
2022-10-19T07:56:03.908Z,99205.47
2022-10-19T07:58:30.516Z,99200.16
2022-10-19T08:01:06.153Z,99196.94
2022-10-19T08:06:20.502Z,99200.97
2022-10-19T08:08:47.877Z,99200.91
2022-10-19T08:11:20.696Z,99203.16
2022-10-19T08:13:47.605Z,99192.00
2022-10-19T08:16:20.971Z,99193.59
2022-10-19T08:18:47.611Z,99198.50
2022-10-19T08:21:14.155Z,99207.59
2022-10-19T08:23:41.417Z,99199.94
2022-10-19T08:26:08.375Z,99200.34
2022-10-19T08:28:34.926Z,99201.34
2022-10-19T08:31:10.243Z,99192.50
2022-10-19T08:33:36.801Z,99195.63
2022-10-19T08:36:10.150Z,99188.88
2022-10-19T08:38:37.385Z,99193.31
2022-10-19T08:41:26.187Z,99193.63
2022-10-19T08:44:26.916Z,99189.66
2022-10-19T08:47:02.668Z,99195.72
2022-10-19T08:49:30.807Z,99193.00
2022-10-19T08:52:29.593Z,99202.81
2022-10-19T08:55:01.092Z,99199.25
2022-10-19T08:57:52.008Z,99201.47
2022-10-19T09:00:43.684Z,99203.84
2022-10-19T09:03:37.811Z,99199.00
2022-10-19T09:06:26.340Z,99198.38
2022-10-19T09:08:57.297Z,99199.38
2022-10-19T09:11:27.483Z,99202.84
2022-10-19T09:14:06.267Z,99195.88
2022-10-19T09:16:34.935Z,99186.13
2022-10-19T09:19:02.727Z,99190.63
2022-10-19T09:21:45.998Z,99186.47
2022-10-19T09:24:23.016Z,99180.50
2022-10-19T09:26:53.675Z,99182.50
2022-10-19T09:29:35.942Z,99181.00
2022-10-19T09:32:05.341Z,99179.53
2022-10-19T09:34:38.511Z,99182.16
2022-10-19T09:37:05.120Z,99177.66
2022-10-19T09:39:32.047Z,99176.22
2022-10-19T09:42:33.401Z,99182.59
2022-10-19T09:45:02.159Z,99182.69
2022-10-19T09:47:35.694Z,99167.91
2022-10-19T09:50:21.698Z,99163.03
2022-10-19T09:52:52.338Z,99165.09
2022-10-19T09:55:20.876Z,99168.94
2022-10-19T09:57:49.379Z,99175.78
2022-10-19T10:00:24.705Z,99169.81
2022-10-19T10:02:53.568Z,99177.00
2022-10-19T10:05:25.382Z,99178.13
2022-10-19T10:07:54.723Z,99172.00
2022-10-19T10:10:28.174Z,99175.91
2022-10-19T10:12:59.127Z,99171.91
2022-10-19T10:15:29.303Z,99162.53
2022-10-19T10:17:57.194Z,99168.00
2022-10-19T10:20:32.163Z,99158.03
2022-10-19T10:23:00.326Z,99165.28
2022-10-19T10:25:36.076Z,99164.31
2022-10-19T10:28:18.045Z,99159.66
2022-10-19T10:30:46.152Z,99151.06
2022-10-19T10:33:27.023Z,99155.34
2022-10-19T10:36:07.756Z,99152.53
2022-10-19T10:38:40.558Z,99152.91
2022-10-19T10:41:13.164Z,99149.06
2022-10-19T10:44:00.982Z,99141.06
2022-10-19T10:46:36.367Z,99144.13
2022-10-19T10:49:07.365Z,99131.38
2022-10-19T10:51:36.940Z,99131.19
2022-10-19T10:54:19.374Z,99127.28
2022-10-19T10:57:03.031Z,99128.13
2022-10-19T10:59:55.667Z,99129.22
2022-10-19T11:02:30.818Z,99120.00
2022-10-19T11:05:12.092Z,99125.09
2022-10-19T11:07:43.112Z,99115.72
2022-10-19T11:10:24.642Z,99118.81
2022-10-19T11:13:05.036Z,99122.88
2022-10-19T11:15:33.626Z,99112.31
2022-10-19T11:18:11.704Z,99111.34
2022-10-19T11:20:43.275Z,99104.34
2022-10-19T11:23:35.604Z,99105.47
2022-10-19T11:26:05.111Z,99102.84
2022-10-19T11:28:48.677Z,99091.72
2022-10-19T11:31:19.508Z,99093.19
2022-10-19T11:34:00.341Z,99084.84
2022-10-19T11:36:30.292Z,99088.28
2022-10-19T11:39:39.025Z,99078.31
2022-10-19T11:42:11.827Z,99074.94
2022-10-19T11:44:54.964Z,99068.34
2022-10-19T11:47:31.617Z,99072.00
2022-10-19T11:50:13.365Z,99063.53
2022-10-19T11:53:06.243Z,99049.50
2022-10-19T11:55:44.140Z,99050.69
2022-10-19T11:58:34.658Z,99039.50
2022-10-19T12:01:16.732Z,99038.78
2022-10-19T12:04:09.386Z,99034.00
2022-10-19T12:06:35.821Z,99028.47
2022-10-19T12:09:20.752Z,99029.94
2022-10-19T12:12:07.592Z,99023.84
2022-10-19T12:14:39.355Z,99020.31
2022-10-19T12:17:09.448Z,99013.16
2022-10-19T12:19:48.353Z,99012.94
2022-10-19T12:22:22.477Z,99020.38
2022-10-19T12:24:50.764Z,99019.44
2022-10-19T12:27:18.638Z,99017.19
2022-10-19T12:29:47.967Z,99021.31
2022-10-19T12:32:16.832Z,99014.69
2022-10-19T12:35:17.831Z,99012.19
2022-10-19T12:37:50.165Z,99010.41
2022-10-19T12:40:27.493Z,99005.06
2022-10-19T12:43:07.002Z,98993.22
2022-10-19T12:46:08.085Z,98993.06
2022-10-19T12:48:36.413Z,98986.72
2022-10-19T12:51:05.812Z,98989.09
2022-10-19T12:53:38.842Z,98987.69
2022-10-19T12:56:28.338Z,98986.47
2022-10-19T12:59:01.443Z,98974.28
2022-10-19T13:01:34.845Z,98979.19
2022-10-19T13:11:24.782Z,98972.31
2022-10-19T13:14:03.035Z,98964.88
2022-10-19T13:16:29.738Z,98966.22
2022-10-19T13:18:59.253Z,98957.06
2022-10-19T13:21:46.622Z,98956.78
2022-10-19T13:27:23.946Z,98947.53
2022-10-19T13:29:50.613Z,98947.84
2022-10-19T13:32:43.426Z,98944.63
2022-10-19T13:35:32.813Z,98949.28
2022-10-19T13:38:18.756Z,98942.97
2022-10-19T13:40:48.646Z,98943.88
2022-10-19T13:43:21.715Z,98936.41
2022-10-19T13:46:08.707Z,98935.16
2022-10-19T13:49:13.536Z,98942.75
2022-10-19T13:51:58.886Z,98927.56
2022-10-19T13:54:34.827Z,98930.81
2022-10-19T13:57:11.256Z,98923.69
2022-10-19T13:59:44.162Z,98911.75
2022-10-19T14:02:36.094Z,98914.25
2022-10-19T14:05:25.307Z,98908.47
2022-10-19T14:08:01.336Z,98910.44
2022-10-19T14:10:33.138Z,98913.00
2022-10-19T14:13:17.269Z,98911.28
2022-10-19T14:16:02.763Z,98901.06
2022-10-19T14:18:33.111Z,98888.97
2022-10-19T14:21:10.344Z,98885.47
2022-10-19T14:23:41.790Z,98891.25
2022-10-19T14:26:31.863Z,98890.38
2022-10-19T14:28:59.588Z,98883.72
2022-10-19T14:31:33.574Z,98878.31
2022-10-19T14:34:03.097Z,98882.16
2022-10-19T14:36:36.353Z,98864.81
2022-10-19T14:39:03.125Z,98865.28
2022-10-19T14:41:36.947Z,98857.41
2022-10-19T14:44:32.321Z,98868.47
2022-10-19T14:47:01.353Z,98874.72
2022-10-19T14:49:27.929Z,98867.22
2022-10-19T14:52:01.053Z,98870.31
2022-10-19T14:54:29.950Z,98857.19
2022-10-19T14:57:01.470Z,98857.81
2022-10-19T14:59:38.976Z,98861.63
2022-10-19T15:02:27.677Z,98858.94
2022-10-19T15:04:56.106Z,98853.91
2022-10-19T15:07:42.574Z,98860.16
2022-10-19T15:10:18.953Z,98851.69
2022-10-19T15:12:45.677Z,98857.69
2022-10-19T15:15:19.705Z,98859.03
2022-10-19T15:17:59.690Z,98856.22
2022-10-19T15:20:28.825Z,98851.56
2022-10-19T15:22:57.662Z,98846.69
2022-10-19T15:25:33.799Z,98848.25
2022-10-19T15:28:33.910Z,98847.03
2022-10-19T15:31:25.367Z,98848.66
2022-10-19T15:33:53.793Z,98849.09
2022-10-19T15:36:21.974Z,98850.22
2022-10-19T15:39:11.473Z,98842.91
2022-10-19T15:41:46.758Z,98846.53
2022-10-19T15:44:34.627Z,98835.66
2022-10-19T15:47:22.559Z,98836.94
2022-10-19T15:49:55.833Z,98837.84
2022-10-19T15:52:31.880Z,98830.28
2022-10-19T15:54:59.693Z,98833.94
2022-10-19T15:57:39.412Z,98826.59
2022-10-19T16:00:13.503Z,98827.44
2022-10-19T16:02:40.722Z,98829.03
2022-10-19T16:07:40.526Z,98826.72
2022-10-19T16:10:11.232Z,98827.31
2022-10-19T16:12:38.212Z,98821.09
2022-10-19T16:15:05.148Z,98818.28
2022-10-19T16:17:32.449Z,98819.03
2022-10-19T16:19:59.187Z,98823.28
2022-10-19T16:22:25.688Z,98819.75
2022-10-19T16:24:52.258Z,98812.41
2022-10-19T16:27:19.020Z,98811.41
2022-10-19T16:29:45.606Z,98819.03
2022-10-19T16:32:12.201Z,98819.28
2022-10-19T16:34:38.812Z,98817.69
2022-10-19T16:37:07.078Z,98818.91
2022-10-19T16:39:34.406Z,98823.19
2022-10-19T16:42:00.963Z,98822.69
2022-10-19T16:44:27.529Z,98816.94
2022-10-19T16:46:56.215Z,98819.81
2022-10-19T16:49:22.749Z,98824.22
2022-10-19T16:51:51.969Z,98825.03
2022-10-19T16:54:21.654Z,98820.09
2022-10-19T16:56:48.415Z,98831.19
2022-10-19T16:59:16.992Z,98826.91
2022-10-19T17:01:44.898Z,98824.06
2022-10-19T17:04:12.499Z,98823.72
2022-10-19T17:06:39.353Z,98825.41
2022-10-19T17:11:52.542Z,98813.69
2022-10-19T17:14:19.152Z,98815.38
2022-10-19T17:16:45.738Z,98826.63
2022-10-19T17:19:12.539Z,98820.38
2022-10-19T17:21:39.431Z,98821.56
2022-10-19T17:24:14.680Z,98822.91
2022-10-19T17:26:45.142Z,98823.34
2022-10-19T17:29:12.369Z,98834.84
2022-10-19T17:31:39.861Z,98832.94
2022-10-19T17:34:07.591Z,98830.44
2022-10-19T17:36:36.018Z,98828.69
2022-10-19T17:39:05.832Z,98816.94
2022-10-19T17:41:33.014Z,98823.66
2022-10-19T17:44:00.002Z,98824.28
2022-10-19T17:46:29.639Z,98825.78
2022-10-19T17:48:56.649Z,98828.44
2022-10-19T17:51:27.128Z,98828.31
2022-10-19T17:53:59.046Z,98824.22
2022-10-19T17:56:26.272Z,98826.31
2022-10-19T17:58:53.249Z,98829.56
2022-10-19T18:01:21.706Z,98831.22
2022-10-19T18:03:49.035Z,98835.38
2022-10-19T18:06:22.750Z,98840.22
2022-10-19T18:08:52.418Z,98844.06
2022-10-19T18:11:21.802Z,98842.31
2022-10-19T18:13:50.303Z,98842.63
2022-10-19T18:16:29.233Z,98843.09
2022-10-19T18:18:57.359Z,98845.16
2022-10-19T18:21:32.394Z,98843.84
2022-10-19T18:24:00.414Z,98849.72
2022-10-19T18:26:28.788Z,98845.59
2022-10-19T18:28:55.900Z,98844.56
2022-10-19T18:31:25.359Z,98838.22
2022-10-19T18:34:15.426Z,98839.09
2022-10-19T18:36:42.473Z,98837.03
2022-10-19T18:39:11.377Z,98829.53
2022-10-19T18:41:38.495Z,98828.66
2022-10-19T18:44:06.872Z,98822.47
2022-10-19T18:46:35.743Z,98820.81
2022-10-19T18:49:04.788Z,98820.09
2022-10-19T18:51:31.962Z,98819.06
2022-10-19T18:53:58.821Z,98817.16
2022-10-19T18:56:25.853Z,98814.63
2022-10-19T18:58:52.534Z,98813.28
2022-10-19T19:01:23.000Z,98813.56
2022-10-19T19:03:51.030Z,98804.59
2022-10-19T19:06:20.595Z,98806.78
2022-10-19T19:08:47.622Z,98807.34
2022-10-19T19:11:18.147Z,98809.53
2022-10-19T19:13:51.346Z,98808.34
2022-10-19T19:16:18.131Z,98797.72
2022-10-19T19:18:44.735Z,98799.94
2022-10-19T19:21:17.293Z,98799.94
2022-10-19T19:23:44.335Z,98807.47
2022-10-19T19:26:12.856Z,98805.13
2022-10-19T19:28:41.535Z,98808.41
2022-10-19T19:31:10.137Z,98799.84
2022-10-19T19:33:36.787Z,98792.28
2022-10-19T19:36:08.443Z,98791.97
2022-10-19T19:38:35.961Z,98794.66
2022-10-19T19:41:07.518Z,98797.47
2022-10-19T19:43:36.866Z,98789.97
2022-10-19T19:46:08.922Z,98796.19
2022-10-19T19:48:36.868Z,98788.63
2022-10-19T19:51:03.612Z,98784.81
2022-10-19T19:53:30.362Z,98791.00
2022-10-19T19:55:56.949Z,98794.56
2022-10-19T19:58:23.444Z,98780.28
2022-10-19T20:00:49.968Z,98777.78
2022-10-19T20:03:16.522Z,98775.41
2022-10-19T20:05:43.025Z,98774.38
2022-10-19T20:08:09.969Z,98768.19
2022-10-19T20:10:43.110Z,98764.50
2022-10-19T20:13:09.644Z,98769.97
2022-10-19T20:15:39.398Z,98763.34
2022-10-19T20:18:06.795Z,98772.63
2022-10-19T20:20:33.313Z,98768.06
2022-10-19T20:22:59.945Z,98768.31
2022-10-19T20:25:26.718Z,98765.09
2022-10-19T20:27:53.261Z,98758.31
2022-10-19T20:30:19.913Z,98758.44
2022-10-19T20:32:46.472Z,98762.13
2022-10-19T20:35:13.084Z,98760.63
2022-10-19T20:37:39.718Z,98756.78
2022-10-19T20:40:08.802Z,98757.81
2022-10-19T20:42:36.193Z,98757.06
2022-10-19T20:45:03.137Z,98750.88
2022-10-19T20:47:29.810Z,98747.78
2022-10-19T20:49:56.396Z,98755.44
2022-10-19T20:52:23.017Z,98751.75
2022-10-19T20:54:49.644Z,98742.47
2022-10-19T20:57:16.165Z,98737.34
2022-10-19T20:59:43.889Z,98731.56
2022-10-19T21:02:10.332Z,98741.84
2022-10-19T21:04:36.893Z,98742.88
2022-10-19T21:07:04.878Z,98741.13
2022-10-19T21:09:31.660Z,98739.03
2022-10-19T21:11:58.530Z,98738.31
2022-10-19T21:14:28.379Z,98738.63
2022-10-19T21:16:57.298Z,98742.38
2022-10-19T21:19:25.375Z,98745.84
2022-10-19T21:21:55.402Z,98745.38
2022-10-19T21:24:24.675Z,98747.06
2022-10-19T21:29:18.867Z,98737.72
2022-10-19T21:31:48.880Z,98737.38
2022-10-19T21:34:18.929Z,98736.28
2022-10-19T21:36:45.500Z,98750.00
2022-10-19T21:39:12.472Z,98749.84
2022-10-19T21:41:39.083Z,98740.84
2022-10-19T21:44:05.716Z,98741.81
2022-10-19T21:46:32.356Z,98736.84
2022-10-19T21:48:58.929Z,98739.16
2022-10-19T21:51:35.965Z,98742.16
2022-10-19T21:54:04.455Z,98740.34
2022-10-19T21:56:32.042Z,98731.00
2022-10-19T21:58:58.838Z,98730.28
2022-10-19T22:01:27.872Z,98726.75
2022-10-19T22:03:57.438Z,98722.38
2022-10-19T22:06:25.409Z,98716.66
2022-10-19T22:08:53.157Z,98708.78
2022-10-19T22:11:19.687Z,98711.41
2022-10-19T22:13:46.430Z,98704.22
2022-10-19T22:16:18.996Z,98704.16
2022-10-19T22:18:46.670Z,98699.41
2022-10-19T22:21:15.748Z,98701.97
2022-10-19T22:23:43.000Z,98705.63
2022-10-19T22:26:17.584Z,98697.00
2022-10-19T22:28:44.708Z,98705.00
2022-10-19T22:31:12.301Z,98704.16
2022-10-19T22:33:39.302Z,98697.81
2022-10-19T22:36:07.699Z,98705.94
2022-10-19T22:38:34.998Z,98704.34
2022-10-19T22:41:01.637Z,98706.66
2022-10-19T22:43:28.217Z,98709.94
2022-10-19T22:45:54.820Z,98712.69
2022-10-19T22:48:21.318Z,98707.31
2022-10-19T22:50:53.044Z,98698.97
2022-10-19T22:53:20.374Z,98695.91
2022-10-19T22:55:46.904Z,98694.75
2022-10-19T22:58:13.522Z,98691.22
2022-10-19T23:00:40.075Z,98693.06
2022-10-19T23:03:06.642Z,98687.06
2022-10-19T23:05:33.171Z,98676.75
2022-10-19T23:07:59.655Z,98667.19
2022-10-19T23:10:26.537Z,98677.38
2022-10-19T23:12:53.673Z,98667.66
2022-10-19T23:15:21.219Z,98671.03
2022-10-19T23:17:48.046Z,98665.44
2022-10-19T23:20:14.942Z,98665.56
2022-10-19T23:22:41.421Z,98661.59
2022-10-19T23:25:08.575Z,98656.91
2022-10-19T23:27:35.441Z,98655.41
2022-10-19T23:30:03.315Z,98648.28
2022-10-19T23:32:29.892Z,98641.59
2022-10-19T23:34:56.772Z,98638.63
2022-10-19T23:37:23.363Z,98640.91
2022-10-19T23:39:50.184Z,98644.84
2022-10-19T23:42:16.719Z,98637.94
2022-10-19T23:44:43.294Z,98637.94
2022-10-19T23:47:09.873Z,98643.09
2022-10-19T23:49:36.524Z,98648.25
2022-10-19T23:52:03.094Z,98642.53
2022-10-19T23:54:29.618Z,98641.81
2022-10-19T23:56:56.137Z,98639.44
2022-10-19T23:59:22.838Z,98627.69
